sensor_id;sensor_type;location;lat;lon;timestamp;temperature;humidity
75838;SHT30;64480;52.040;113.502;2022-10-24T00:02:49;0.59;57.81
75838;SHT30;64480;52.040;113.502;2022-10-24T00:15:16;-0.20;60.31
75838;SHT30;64480;52.040;113.502;2022-10-24T00:18:47;-0.35;61.04
75838;SHT30;64480;52.040;113.502;2022-10-24T00:23:21;-0.34;60.87
75838;SHT30;64480;52.040;113.502;2022-10-24T00:41:32;-0.38;61.03
75838;SHT30;64480;52.040;113.502;2022-10-24T00:44:40;-0.41;60.90
75838;SHT30;64480;52.040;113.502;2022-10-24T00:47:50;-0.41;60.93
75838;SHT30;64480;52.040;113.502;2022-10-24T01:05:25;-0.31;60.90
75838;SHT30;64480;52.040;113.502;2022-10-24T01:21:35;-0.02;60.26
75838;SHT30;64480;52.040;113.502;2022-10-24T01:30:28;0.48;58.89
75838;SHT30;64480;52.040;113.502;2022-10-24T01:38:29;0.61;58.52
75838;SHT30;64480;52.040;113.502;2022-10-24T01:41:45;0.69;58.46
75838;SHT30;64480;52.040;113.502;2022-10-24T01:45:30;0.73;58.43
75838;SHT30;64480;52.040;113.502;2022-10-24T01:49:20;0.81;58.21
75838;SHT30;64480;52.040;113.502;2022-10-24T01:53:24;0.96;58.06
75838;SHT30;64480;52.040;113.502;2022-10-24T01:56:45;0.98;57.87
75838;SHT30;64480;52.040;113.502;2022-10-24T01:59:52;0.96;58.58
75838;SHT30;64480;52.040;113.502;2022-10-24T02:03:39;1.01;58.75
75838;SHT30;64480;52.040;113.502;2022-10-24T02:16:06;1.34;58.01
75838;SHT30;64480;52.040;113.502;2022-10-24T02:19:23;1.52;57.47
75838;SHT30;64480;52.040;113.502;2022-10-24T02:22:42;1.70;57.31
75838;SHT30;64480;52.040;113.502;2022-10-24T02:25:50;1.86;56.64
75838;SHT30;64480;52.040;113.502;2022-10-24T02:29:50;1.96;56.34
75838;SHT30;64480;52.040;113.502;2022-10-24T02:33:27;2.01;56.46
75838;SHT30;64480;52.040;113.502;2022-10-24T02:36:35;2.08;56.19
75838;SHT30;64480;52.040;113.502;2022-10-24T02:39:40;2.20;56.05
75838;SHT30;64480;52.040;113.502;2022-10-24T02:42:46;2.31;55.92
75838;SHT30;64480;52.040;113.502;2022-10-24T02:46:14;2.42;55.55
75838;SHT30;64480;52.040;113.502;2022-10-24T02:49:32;2.53;55.44
75838;SHT30;64480;52.040;113.502;2022-10-24T02:52:38;2.72;55.25
75838;SHT30;64480;52.040;113.502;2022-10-24T02:56:07;2.94;55.11
75838;SHT30;64480;52.040;113.502;2022-10-24T02:59:13;3.14;54.55
75838;SHT30;64480;52.040;113.502;2022-10-24T03:02:22;3.31;54.45
75838;SHT30;64480;52.040;113.502;2022-10-24T03:05:25;3.35;54.01
75838;SHT30;64480;52.040;113.502;2022-10-24T03:08:38;3.43;53.62
75838;SHT30;64480;52.040;113.502;2022-10-24T03:12:08;3.60;53.11
75838;SHT30;64480;52.040;113.502;2022-10-24T03:15:19;3.73;52.93
75838;SHT30;64480;52.040;113.502;2022-10-24T03:18:23;3.77;52.50
75838;SHT30;64480;52.040;113.502;2022-10-24T03:21:28;3.83;52.33
75838;SHT30;64480;52.040;113.502;2022-10-24T03:24:31;3.97;52.45
75838;SHT30;64480;52.040;113.502;2022-10-24T03:27:42;4.05;51.92
75838;SHT30;64480;52.040;113.502;2022-10-24T03:30:51;4.19;51.40
75838;SHT30;64480;52.040;113.502;2022-10-24T03:34:20;4.28;51.04
75838;SHT30;64480;52.040;113.502;2022-10-24T03:37:38;4.32;50.98
75838;SHT30;64480;52.040;113.502;2022-10-24T03:41:02;4.45;50.83
75838;SHT30;64480;52.040;113.502;2022-10-24T03:44:13;4.56;50.41
75838;SHT30;64480;52.040;113.502;2022-10-24T03:47:28;4.60;50.43
75838;SHT30;64480;52.040;113.502;2022-10-24T03:50:32;4.70;50.47
75838;SHT30;64480;52.040;113.502;2022-10-24T03:53:38;4.76;50.10
75838;SHT30;64480;52.040;113.502;2022-10-24T03:56:46;4.80;49.92
75838;SHT30;64480;52.040;113.502;2022-10-24T03:59:52;4.90;49.47
75838;SHT30;64480;52.040;113.502;2022-10-24T04:03:21;5.04;49.18
75838;SHT30;64480;52.040;113.502;2022-10-24T04:06:25;5.17;48.85
75838;SHT30;64480;52.040;113.502;2022-10-24T04:09:38;5.21;48.51
75838;SHT30;64480;52.040;113.502;2022-10-24T04:13:02;5.31;48.43
75838;SHT30;64480;52.040;113.502;2022-10-24T04:20:06;5.67;47.43
75838;SHT30;64480;52.040;113.502;2022-10-24T04:23:16;5.77;47.18
75838;SHT30;64480;52.040;113.502;2022-10-24T04:26:19;5.87;46.93
75838;SHT30;64480;52.040;113.502;2022-10-24T04:29:49;6.01;46.58
75838;SHT30;64480;52.040;113.502;2022-10-24T04:32:56;6.07;46.46
75838;SHT30;64480;52.040;113.502;2022-10-24T04:35:59;6.12;46.44
75838;SHT30;64480;52.040;113.502;2022-10-24T04:39:08;6.29;45.86
75838;SHT30;64480;52.040;113.502;2022-10-24T04:42:26;6.36;45.49
75838;SHT30;64480;52.040;113.502;2022-10-24T04:45:31;6.40;45.47
75838;SHT30;64480;52.040;113.502;2022-10-24T04:48:37;6.47;45.13
75838;SHT30;64480;52.040;113.502;2022-10-24T04:51:44;6.57;44.99
75838;SHT30;64480;52.040;113.502;2022-10-24T04:54:48;6.76;44.62
75838;SHT30;64480;52.040;113.502;2022-10-24T04:57:51;6.91;44.25
75838;SHT30;64480;52.040;113.502;2022-10-24T05:01:02;7.05;44.22
75838;SHT30;64480;52.040;113.502;2022-10-24T05:04:06;7.23;43.92
75838;SHT30;64480;52.040;113.502;2022-10-24T05:07:09;7.40;43.41
75838;SHT30;64480;52.040;113.502;2022-10-24T05:10:13;7.55;42.85
75838;SHT30;64480;52.040;113.502;2022-10-24T05:13:17;7.66;42.80
75838;SHT30;64480;52.040;113.502;2022-10-24T05:20:58;8.11;41.83
75838;SHT30;64480;52.040;113.502;2022-10-24T05:24:02;8.25;41.54
75838;SHT30;64480;52.040;113.502;2022-10-24T05:27:05;8.38;41.34
75838;SHT30;64480;52.040;113.502;2022-10-24T05:30:09;8.47;40.75
75838;SHT30;64480;52.040;113.502;2022-10-24T05:33:13;8.63;40.24
75838;SHT30;64480;52.040;113.502;2022-10-24T05:36:22;8.77;39.93
75838;SHT30;64480;52.040;113.502;2022-10-24T05:39:26;8.84;39.66
75838;SHT30;64480;52.040;113.502;2022-10-24T05:42:29;9.02;39.34
75838;SHT30;64480;52.040;113.502;2022-10-24T05:45:36;9.10;39.19
75838;SHT30;64480;52.040;113.502;2022-10-24T05:48:39;9.23;39.09
75838;SHT30;64480;52.040;113.502;2022-10-24T05:51:42;9.33;38.60
75838;SHT30;64480;52.040;113.502;2022-10-24T05:54:50;9.43;39.05
75838;SHT30;64480;52.040;113.502;2022-10-24T05:58:07;9.54;38.46
75838;SHT30;64480;52.040;113.502;2022-10-24T06:01:11;9.66;38.27
75838;SHT30;64480;52.040;113.502;2022-10-24T06:04:15;9.74;37.90
75838;SHT30;64480;52.040;113.502;2022-10-24T06:07:18;9.84;37.63
75838;SHT30;64480;52.040;113.502;2022-10-24T06:10:22;9.90;37.48
75838;SHT30;64480;52.040;113.502;2022-10-24T06:13:26;9.99;37.39
75838;SHT30;64480;52.040;113.502;2022-10-24T06:16:31;9.99;37.40
75838;SHT30;64480;52.040;113.502;2022-10-24T06:19:36;10.05;37.19
75838;SHT30;64480;52.040;113.502;2022-10-24T06:22:40;10.06;37.08
75838;SHT30;64480;52.040;113.502;2022-10-24T06:25:48;10.11;37.41
75838;SHT30;64480;52.040;113.502;2022-10-24T06:28:52;10.12;37.17
75838;SHT30;64480;52.040;113.502;2022-10-24T06:31:57;10.16;37.50
75838;SHT30;64480;52.040;113.502;2022-10-24T06:35:01;10.26;37.34
75838;SHT30;64480;52.040;113.502;2022-10-24T06:38:04;10.32;36.84
75838;SHT30;64480;52.040;113.502;2022-10-24T06:41:09;10.38;36.66
75838;SHT30;64480;52.040;113.502;2022-10-24T06:44:13;10.38;36.67
75838;SHT30;64480;52.040;113.502;2022-10-24T06:47:31;10.38;36.57
75838;SHT30;64480;52.040;113.502;2022-10-24T06:50:37;10.38;36.50
75838;SHT30;64480;52.040;113.502;2022-10-24T06:53:43;10.36;36.48
75838;SHT30;64480;52.040;113.502;2022-10-24T06:56:46;10.33;36.43
75838;SHT30;64480;52.040;113.502;2022-10-24T06:59:49;10.35;36.60
75838;SHT30;64480;52.040;113.502;2022-10-24T07:03:14;10.39;36.35
75838;SHT30;64480;52.040;113.502;2022-10-24T07:06:23;10.45;36.38
75838;SHT30;64480;52.040;113.502;2022-10-24T07:09:56;10.60;36.02
75838;SHT30;64480;52.040;113.502;2022-10-24T07:13:06;10.83;35.45
75838;SHT30;64480;52.040;113.502;2022-10-24T07:16:16;11.01;35.14
75838;SHT30;64480;52.040;113.502;2022-10-24T07:19:23;11.00;35.07
75838;SHT30;64480;52.040;113.502;2022-10-24T07:22:30;10.98;34.98
75838;SHT30;64480;52.040;113.502;2022-10-24T07:25:37;10.97;35.35
75838;SHT30;64480;52.040;113.502;2022-10-24T07:29:24;10.94;35.52
75838;SHT30;64480;52.040;113.502;2022-10-24T07:32:36;10.90;35.32
75838;SHT30;64480;52.040;113.502;2022-10-24T07:36:03;10.91;35.55
75838;SHT30;64480;52.040;113.502;2022-10-24T07:39:07;10.88;35.57
75838;SHT30;64480;52.040;113.502;2022-10-24T07:42:11;10.84;35.66
75838;SHT30;64480;52.040;113.502;2022-10-24T07:45:15;10.85;35.64
75838;SHT30;64480;52.040;113.502;2022-10-24T07:48:30;10.81;35.66
75838;SHT30;64480;52.040;113.502;2022-10-24T07:51:33;10.77;35.71
75838;SHT30;64480;52.040;113.502;2022-10-24T07:55:05;10.77;35.76
75838;SHT30;64480;52.040;113.502;2022-10-24T07:58:14;10.74;35.80
75838;SHT30;64480;52.040;113.502;2022-10-24T08:09:11;10.52;36.38
75838;SHT30;64480;52.040;113.502;2022-10-24T08:12:14;10.46;36.70
75838;SHT30;64480;52.040;113.502;2022-10-24T08:15:27;10.33;36.85
75838;SHT30;64480;52.040;113.502;2022-10-24T08:18:34;10.21;36.97
75838;SHT30;64480;52.040;113.502;2022-10-24T08:21:38;10.15;37.06
75838;SHT30;64480;52.040;113.502;2022-10-24T08:24:42;10.08;37.41
75838;SHT30;64480;52.040;113.502;2022-10-24T08:27:49;9.94;37.72
75838;SHT30;64480;52.040;113.502;2022-10-24T08:34:57;9.64;38.60
75838;SHT30;64480;52.040;113.502;2022-10-24T08:38:00;9.50;38.62
75838;SHT30;64480;52.040;113.502;2022-10-24T08:41:05;9.36;38.92
75838;SHT30;64480;52.040;113.502;2022-10-24T08:47:41;9.14;39.67
75838;SHT30;64480;52.040;113.502;2022-10-24T08:55:53;8.85;39.97
75838;SHT30;64480;52.040;113.502;2022-10-24T08:59:36;8.75;40.82
75838;SHT30;64480;52.040;113.502;2022-10-24T09:03:00;8.70;41.00
75838;SHT30;64480;52.040;113.502;2022-10-24T09:06:16;8.60;41.40
75838;SHT30;64480;52.040;113.502;2022-10-24T09:09:28;8.46;41.56
75838;SHT30;64480;52.040;113.502;2022-10-24T09:20:33;8.28;42.19
75838;SHT30;64480;52.040;113.502;2022-10-24T09:24:02;8.16;42.25
75838;SHT30;64480;52.040;113.502;2022-10-24T09:27:10;8.09;42.50
75838;SHT30;64480;52.040;113.502;2022-10-24T09:30:23;8.02;43.34
75838;SHT30;64480;52.040;113.502;2022-10-24T09:33:38;7.92;43.49
75838;SHT30;64480;52.040;113.502;2022-10-24T09:36:44;7.87;43.62
75838;SHT30;64480;52.040;113.502;2022-10-24T09:54:31;7.57;44.91
75838;SHT30;64480;52.040;113.502;2022-10-24T10:01:02;7.29;45.24
75838;SHT30;64480;52.040;113.502;2022-10-24T10:04:16;7.25;45.27
75838;SHT30;64480;52.040;113.502;2022-10-24T10:07:35;7.09;45.61
75838;SHT30;64480;52.040;113.502;2022-10-24T10:11:00;6.95;45.89
75838;SHT30;64480;52.040;113.502;2022-10-24T10:14:31;6.90;46.33
75838;SHT30;64480;52.040;113.502;2022-10-24T10:17:55;6.83;46.40
75838;SHT30;64480;52.040;113.502;2022-10-24T10:21:20;6.73;46.85
75838;SHT30;64480;52.040;113.502;2022-10-24T10:27:41;6.60;46.96
75838;SHT30;64480;52.040;113.502;2022-10-24T10:30:58;6.52;47.07
75838;SHT30;64480;52.040;113.502;2022-10-24T10:34:14;6.40;47.40
75838;SHT30;64480;52.040;113.502;2022-10-24T10:37:34;6.29;47.43
75838;SHT30;64480;52.040;113.502;2022-10-24T10:45:39;6.04;48.21
75838;SHT30;64480;52.040;113.502;2022-10-24T10:58:22;5.89;48.83
75838;SHT30;64480;52.040;113.502;2022-10-24T11:06:07;5.74;49.09
75838;SHT30;64480;52.040;113.502;2022-10-24T11:13:56;5.60;49.56
75838;SHT30;64480;52.040;113.502;2022-10-24T11:20:29;5.36;50.03
75838;SHT30;64480;52.040;113.502;2022-10-24T11:23:56;5.34;50.01
75838;SHT30;64480;52.040;113.502;2022-10-24T11:27:12;5.32;50.21
75838;SHT30;64480;52.040;113.502;2022-10-24T11:30:34;5.34;50.23
75838;SHT30;64480;52.040;113.502;2022-10-24T11:33:48;5.34;51.24
75838;SHT30;64480;52.040;113.502;2022-10-24T11:37:02;5.31;50.95
75838;SHT30;64480;52.040;113.502;2022-10-24T11:40:19;5.34;50.81
75838;SHT30;64480;52.040;113.502;2022-10-24T11:43:37;5.25;50.63
75838;SHT30;64480;52.040;113.502;2022-10-24T11:51:41;5.01;50.96
75838;SHT30;64480;52.040;113.502;2022-10-24T11:58:57;4.97;51.41
75838;SHT30;64480;52.040;113.502;2022-10-24T12:05:38;4.90;51.22
75838;SHT30;64480;52.040;113.502;2022-10-24T12:15:53;5.21;51.15
75838;SHT30;64480;52.040;113.502;2022-10-24T12:19:03;5.22;50.93
75838;SHT30;64480;52.040;113.502;2022-10-24T12:22:16;5.22;50.96
75838;SHT30;64480;52.040;113.502;2022-10-24T12:28:34;5.22;50.88
75838;SHT30;64480;52.040;113.502;2022-10-24T12:51:39;5.05;51.56
75838;SHT30;64480;52.040;113.502;2022-10-24T12:54:45;5.01;51.85
75838;SHT30;64480;52.040;113.502;2022-10-24T12:57:49;4.94;52.09
75838;SHT30;64480;52.040;113.502;2022-10-24T13:01:25;5.04;51.99
75838;SHT30;64480;52.040;113.502;2022-10-24T13:08:20;5.02;52.18
75838;SHT30;64480;52.040;113.502;2022-10-24T13:11:39;5.09;52.13
75838;SHT30;64480;52.040;113.502;2022-10-24T13:24:36;5.31;52.12
75838;SHT30;64480;52.040;113.502;2022-10-24T13:35:14;5.46;51.87
75838;SHT30;64480;52.040;113.502;2022-10-24T13:43:16;5.29;52.18
75838;SHT30;64480;52.040;113.502;2022-10-24T13:46:34;5.19;52.16
75838;SHT30;64480;52.040;113.502;2022-10-24T13:50:04;5.02;52.82
75838;SHT30;64480;52.040;113.502;2022-10-24T13:53:34;4.87;53.13
75838;SHT30;64480;52.040;113.502;2022-10-24T13:56:55;4.73;53.77
75838;SHT30;64480;52.040;113.502;2022-10-24T14:00:03;4.60;53.88
75838;SHT30;64480;52.040;113.502;2022-10-24T14:03:22;4.63;54.17
75838;SHT30;64480;52.040;113.502;2022-10-24T14:06:30;4.63;54.06
75838;SHT30;64480;52.040;113.502;2022-10-24T14:09:39;4.73;54.23
75838;SHT30;64480;52.040;113.502;2022-10-24T14:12:52;4.79;53.93
75838;SHT30;64480;52.040;113.502;2022-10-24T14:16:01;4.79;54.08
75838;SHT30;64480;52.040;113.502;2022-10-24T14:22:20;5.09;54.26
75838;SHT30;64480;52.040;113.502;2022-10-24T14:25:33;5.32;53.55
75838;SHT30;64480;52.040;113.502;2022-10-24T14:33:30;5.74;53.25
75838;SHT30;64480;52.040;113.502;2022-10-24T14:36:36;5.95;53.40
75838;SHT30;64480;52.040;113.502;2022-10-24T14:39:40;6.19;53.22
75838;SHT30;64480;52.040;113.502;2022-10-24T14:42:49;6.32;53.24
75838;SHT30;64480;52.040;113.502;2022-10-24T14:46:33;6.39;54.14
75838;SHT30;64480;52.040;113.502;2022-10-24T14:54:28;6.52;59.82
75838;SHT30;64480;52.040;113.502;2022-10-24T14:57:34;6.60;61.59
75838;SHT30;64480;52.040;113.502;2022-10-24T15:00:57;6.58;63.26
75838;SHT30;64480;52.040;113.502;2022-10-24T15:04:25;6.49;65.10
75838;SHT30;64480;52.040;113.502;2022-10-24T15:13:42;6.38;70.05
75838;SHT30;64480;52.040;113.502;2022-10-24T15:21:39;6.25;72.42
75838;SHT30;64480;52.040;113.502;2022-10-24T15:24:50;6.22;72.89
75838;SHT30;64480;52.040;113.502;2022-10-24T15:27:54;6.21;73.40
75838;SHT30;64480;52.040;113.502;2022-10-24T15:31:01;6.19;74.25
75838;SHT30;64480;52.040;113.502;2022-10-24T15:34:04;6.18;74.27
75838;SHT30;64480;52.040;113.502;2022-10-24T15:37:17;6.15;75.34
75838;SHT30;64480;52.040;113.502;2022-10-24T15:45:15;6.05;76.76
75838;SHT30;64480;52.040;113.502;2022-10-24T15:48:28;5.97;76.60
75838;SHT30;64480;52.040;113.502;2022-10-24T15:51:31;5.91;76.43
75838;SHT30;64480;52.040;113.502;2022-10-24T15:54:34;5.84;76.94
75838;SHT30;64480;52.040;113.502;2022-10-24T15:58:28;5.75;76.27
75838;SHT30;64480;52.040;113.502;2022-10-24T16:01:59;5.77;75.48
75838;SHT30;64480;52.040;113.502;2022-10-24T16:09:42;5.73;74.97
75838;SHT30;64480;52.040;113.502;2022-10-24T16:12:59;5.66;76.24
75838;SHT30;64480;52.040;113.502;2022-10-24T16:16:44;5.64;75.34
75838;SHT30;64480;52.040;113.502;2022-10-24T16:24:16;5.62;75.56
75838;SHT30;64480;52.040;113.502;2022-10-24T16:32:14;5.55;75.27
75838;SHT30;64480;52.040;113.502;2022-10-24T16:36:08;5.53;74.39
75838;SHT30;64480;52.040;113.502;2022-10-24T16:40:07;5.53;74.88
75838;SHT30;64480;52.040;113.502;2022-10-24T16:43:12;5.53;75.60
75838;SHT30;64480;52.040;113.502;2022-10-24T16:46:20;5.57;75.41
75838;SHT30;64480;52.040;113.502;2022-10-24T16:49:23;5.56;75.74
75838;SHT30;64480;52.040;113.502;2022-10-24T16:52:36;5.56;75.04
75838;SHT30;64480;52.040;113.502;2022-10-24T16:56:08;5.59;75.77
75838;SHT30;64480;52.040;113.502;2022-10-24T16:59:12;5.63;75.66
75838;SHT30;64480;52.040;113.502;2022-10-24T17:11:52;5.73;73.69
75838;SHT30;64480;52.040;113.502;2022-10-24T17:14:58;5.71;73.95
75838;SHT30;64480;52.040;113.502;2022-10-24T17:18:02;5.69;72.75
75838;SHT30;64480;52.040;113.502;2022-10-24T17:21:08;5.69;73.17
75838;SHT30;64480;52.040;113.502;2022-10-24T17:24:12;5.69;72.68
75838;SHT30;64480;52.040;113.502;2022-10-24T17:27:16;5.66;72.94
75838;SHT30;64480;52.040;113.502;2022-10-24T17:30:22;5.66;72.29
75838;SHT30;64480;52.040;113.502;2022-10-24T17:33:28;5.67;71.44
75838;SHT30;64480;52.040;113.502;2022-10-24T17:36:36;5.70;71.68
75838;SHT30;64480;52.040;113.502;2022-10-24T17:40:05;5.71;70.56
75838;SHT30;64480;52.040;113.502;2022-10-24T17:43:24;5.75;71.48
75838;SHT30;64480;52.040;113.502;2022-10-24T17:46:27;5.77;70.63
75838;SHT30;64480;52.040;113.502;2022-10-24T17:49:31;5.73;70.95
75838;SHT30;64480;52.040;113.502;2022-10-24T17:52:39;5.77;68.04
75838;SHT30;64480;52.040;113.502;2022-10-24T17:59:54;5.77;69.58
75838;SHT30;64480;52.040;113.502;2022-10-24T18:03:35;5.69;69.75
75838;SHT30;64480;52.040;113.502;2022-10-24T18:06:39;5.69;69.51
75838;SHT30;64480;52.040;113.502;2022-10-24T18:09:44;5.62;69.47
75838;SHT30;64480;52.040;113.502;2022-10-24T18:12:50;5.60;69.53
75838;SHT30;64480;52.040;113.502;2022-10-24T18:16:33;5.59;68.63
75838;SHT30;64480;52.040;113.502;2022-10-24T18:28:36;5.59;67.03
75838;SHT30;64480;52.040;113.502;2022-10-24T18:31:48;5.57;66.40
75838;SHT30;64480;52.040;113.502;2022-10-24T18:34:52;5.56;65.81
75838;SHT30;64480;52.040;113.502;2022-10-24T18:37:55;5.55;65.95
75838;SHT30;64480;52.040;113.502;2022-10-24T18:41:41;5.57;65.10
75838;SHT30;64480;52.040;113.502;2022-10-24T18:44:46;5.52;65.11
75838;SHT30;64480;52.040;113.502;2022-10-24T18:47:51;5.52;64.55
75838;SHT30;64480;52.040;113.502;2022-10-24T18:52:06;5.50;64.98
75838;SHT30;64480;52.040;113.502;2022-10-24T18:55:42;5.45;65.51
75838;SHT30;64480;52.040;113.502;2022-10-24T18:58:49;5.46;65.86
75838;SHT30;64480;52.040;113.502;2022-10-24T19:06:20;5.42;66.14
75838;SHT30;64480;52.040;113.502;2022-10-24T19:14:15;5.43;65.31
75838;SHT30;64480;52.040;113.502;2022-10-24T19:17:20;5.49;65.71
75838;SHT30;64480;52.040;113.502;2022-10-24T19:20:27;5.55;64.49
75838;SHT30;64480;52.040;113.502;2022-10-24T19:23:30;5.60;63.22
75838;SHT30;64480;52.040;113.502;2022-10-24T19:27:00;5.64;63.05
75838;SHT30;64480;52.040;113.502;2022-10-24T19:30:04;5.66;61.66
75838;SHT30;64480;52.040;113.502;2022-10-24T19:33:40;5.66;61.26
75838;SHT30;64480;52.040;113.502;2022-10-24T19:37:42;5.57;60.01
75838;SHT30;64480;52.040;113.502;2022-10-24T20:10:19;5.35;55.57
75838;SHT30;64480;52.040;113.502;2022-10-24T20:13:30;5.35;55.86
75838;SHT30;64480;52.040;113.502;2022-10-24T20:16:38;5.25;55.46
75838;SHT30;64480;52.040;113.502;2022-10-24T20:20:00;5.18;54.38
75838;SHT30;64480;52.040;113.502;2022-10-24T20:23:55;5.21;53.86
75838;SHT30;64480;52.040;113.502;2022-10-24T20:27:21;5.09;53.86
75838;SHT30;64480;52.040;113.502;2022-10-24T20:30:56;4.97;54.50
75838;SHT30;64480;52.040;113.502;2022-10-24T20:35:08;4.88;53.94
75838;SHT30;64480;52.040;113.502;2022-10-24T20:38:14;4.85;53.76
75838;SHT30;64480;52.040;113.502;2022-10-24T20:42:00;4.77;53.83
75838;SHT30;64480;52.040;113.502;2022-10-24T20:50:05;4.67;54.09
75838;SHT30;64480;52.040;113.502;2022-10-24T20:53:09;4.66;54.79
75838;SHT30;64480;52.040;113.502;2022-10-24T21:00:57;4.66;53.51
75838;SHT30;64480;52.040;113.502;2022-10-24T21:08:12;4.50;54.48
75838;SHT30;64480;52.040;113.502;2022-10-24T21:11:17;4.48;53.87
75838;SHT30;64480;52.040;113.502;2022-10-24T21:15:02;4.44;55.20
75838;SHT30;64480;52.040;113.502;2022-10-24T21:18:28;4.38;53.83
75838;SHT30;64480;52.040;113.502;2022-10-24T21:26:30;4.38;54.00
75838;SHT30;64480;52.040;113.502;2022-10-24T21:34:31;4.32;51.56
75838;SHT30;64480;52.040;113.502;2022-10-24T21:37:53;4.17;51.65
75838;SHT30;64480;52.040;113.502;2022-10-24T21:41:56;4.12;51.83
75838;SHT30;64480;52.040;113.502;2022-10-24T21:49:10;4.12;52.05
75838;SHT30;64480;52.040;113.502;2022-10-24T21:52:16;4.14;51.73
75838;SHT30;64480;52.040;113.502;2022-10-24T21:55:35;4.09;51.30
75838;SHT30;64480;52.040;113.502;2022-10-24T21:58:53;3.95;51.62
75838;SHT30;64480;52.040;113.502;2022-10-24T22:02:33;3.86;52.37
75838;SHT30;64480;52.040;113.502;2022-10-24T22:05:54;3.84;51.91
75838;SHT30;64480;52.040;113.502;2022-10-24T22:09:00;3.84;51.34
75838;SHT30;64480;52.040;113.502;2022-10-24T22:12:03;3.80;51.38
75838;SHT30;64480;52.040;113.502;2022-10-24T22:15:07;3.73;51.47
75838;SHT30;64480;52.040;113.502;2022-10-24T22:18:19;3.72;51.01
75838;SHT30;64480;52.040;113.502;2022-10-24T22:22:17;3.77;51.47
75838;SHT30;64480;52.040;113.502;2022-10-24T22:25:20;3.73;52.59
75838;SHT30;64480;52.040;113.502;2022-10-24T22:28:30;3.72;49.88
75838;SHT30;64480;52.040;113.502;2022-10-24T22:32:11;3.69;50.75
75838;SHT30;64480;52.040;113.502;2022-10-24T22:35:17;3.66;51.85
75838;SHT30;64480;52.040;113.502;2022-10-24T22:38:21;3.62;49.62
75838;SHT30;64480;52.040;113.502;2022-10-24T22:41:24;3.59;48.73
75838;SHT30;64480;52.040;113.502;2022-10-24T22:44:29;3.59;49.24
75838;SHT30;64480;52.040;113.502;2022-10-24T22:50:52;3.58;50.36
75838;SHT30;64480;52.040;113.502;2022-10-24T22:53:55;3.64;50.86
75838;SHT30;64480;52.040;113.502;2022-10-24T22:56:59;3.73;50.57
75838;SHT30;64480;52.040;113.502;2022-10-24T23:00:03;3.74;49.99
75838;SHT30;64480;52.040;113.502;2022-10-24T23:03:42;3.66;48.53
75838;SHT30;64480;52.040;113.502;2022-10-24T23:06:55;3.53;48.01
75838;SHT30;64480;52.040;113.502;2022-10-24T23:10:00;3.52;48.92
75838;SHT30;64480;52.040;113.502;2022-10-24T23:13:03;3.53;48.63
75838;SHT30;64480;52.040;113.502;2022-10-24T23:16:41;3.55;47.45
75838;SHT30;64480;52.040;113.502;2022-10-24T23:24:00;3.45;48.29
75838;SHT30;64480;52.040;113.502;2022-10-24T23:27:45;3.51;48.08
75838;SHT30;64480;52.040;113.502;2022-10-24T23:31:04;3.62;48.09
75838;SHT30;64480;52.040;113.502;2022-10-24T23:34:22;3.63;46.78
75838;SHT30;64480;52.040;113.502;2022-10-24T23:37:49;3.59;47.65
75838;SHT30;64480;52.040;113.502;2022-10-24T23:40:58;3.62;47.48
75838;SHT30;64480;52.040;113.502;2022-10-24T23:44:07;3.77;47.43
75838;SHT30;64480;52.040;113.502;2022-10-24T23:52:10;4.04;47.31
75838;SHT30;64480;52.040;113.502;2022-10-24T23:55:11;4.18;46.26
75838;SHT30;64480;52.040;113.502;2022-10-24T23:58:18;4.18;44.90
